Time;durP1;ratioP1;P1;durP2;ratioP2;P2;SDS_P1;SDS_P2;PMS_P1;PMS_P2;Temp;Humidity;BMP_temperature;BMP_pressure;BME280_temperature;BME280_humidity;BME280_pressure;Samples;Min_cycle;Max_cycle;Signal;HPM_P1;HPM_P2
2021/07/07 00:00:43;;;;;;;;;3.00;3.00;;;;;;;;5005685;28;45454;-80
2021/07/07 00:03:08;;;;;;;;;4.33;4.33;;;;;;;;5022224;28;45980;-81
2021/07/07 00:05:33;;;;;;;;;4.67;3.00;;;;;;;;5027345;28;45775;-81
2021/07/07 00:07:59;;;;;;;;;3.00;3.00;;;;;;;;5030339;28;45798;-81
2021/07/07 00:10:24;;;;;;;;;3.00;2.00;;;;;;;;5030310;28;45503;-81
2021/07/07 00:12:49;;;;;;;;;5.00;3.25;;;;;;;;5016827;28;46754;-80
2021/07/07 00:15:19;;;;;;;;;3.75;3.25;;;;;;;;5017946;28;45530;-81
2021/07/07 00:17:46;;;;;;;;;3.00;3.00;;;;;;;;5023189;28;45821;-81
2021/07/07 00:20:12;;;;;;;;;4.50;3.50;;;;;;;;5021869;28;45641;-81
2021/07/07 00:22:38;;;;;;;;;2.00;2.00;;;;;;;;5012598;28;47575;-81
2021/07/07 00:25:04;;;;;;;;;6.25;2.75;;;;;;;;5010469;28;45550;-81
2021/07/07 00:27:31;;;;;;;;;2.75;2.25;;;;;;;;5014895;28;46310;-82
2021/07/07 00:29:56;;;;;;;;;4.75;3.25;;;;;;;;5002300;28;45539;-80
2021/07/07 00:32:22;;;;;;;;;3.25;3.25;;;;;;;;5017735;28;48312;-80
2021/07/07 00:34:47;;;;;;;;;6.25;3.00;;;;;;;;5029288;28;45581;-80
2021/07/07 00:37:13;;;;;;;;;5.50;2.50;;;;;;;;5001821;28;45494;-80
2021/07/07 00:39:38;;;;;;;;;4.50;3.00;;;;;;;;5017874;28;45770;-80
2021/07/07 00:42:03;;;;;;;;;5.50;2.25;;;;;;;;5039884;28;45594;-80
2021/07/07 00:44:29;;;;;;;;;2.00;2.00;;;;;;;;5015870;28;45565;-81
2021/07/07 00:46:54;;;;;;;;;3.67;3.00;;;;;;;;5027332;28;45414;-80
2021/07/07 00:49:19;;;;;;;;;3.50;3.50;;;;;;;;5012870;28;45613;-81
2021/07/07 00:51:45;;;;;;;;;3.25;3.25;;;;;;;;5019739;28;45720;-81
2021/07/07 00:54:12;;;;;;;;;3.00;3.00;;;;;;;;5001180;28;45502;-81
2021/07/07 00:56:38;;;;;;;;;6.25;4.00;;;;;;;;5021374;28;47017;-81
2021/07/07 00:59:03;;;;;;;;;5.00;3.00;;;;;;;;5014680;28;45969;-81
2021/07/07 01:01:30;;;;;;;;;2.00;2.00;;;;;;;;5027886;28;46413;-80
2021/07/07 01:03:55;;;;;;;;;4.75;3.75;;;;;;;;5026189;28;45560;-80
2021/07/07 01:06:20;;;;;;;;;5.00;2.00;;;;;;;;4990055;28;45669;-80
2021/07/07 01:08:46;;;;;;;;;3.75;3.00;;;;;;;;5017657;28;45613;-81
2021/07/07 01:11:11;;;;;;;;;4.00;3.33;;;;;;;;5020659;28;46148;-81
2021/07/07 01:13:38;;;;;;;;;3.00;2.25;;;;;;;;5025204;28;45847;-81
2021/07/07 01:16:03;;;;;;;;;5.00;2.00;;;;;;;;5014303;28;45313;-80
2021/07/07 01:18:29;;;;;;;;;8.00;3.75;;;;;;;;5018347;28;46135;-80
2021/07/07 01:20:54;;;;;;;;;2.33;2.33;;;;;;;;5020626;28;45597;-80
2021/07/07 01:23:19;;;;;;;;;5.25;3.00;;;;;;;;5012830;28;45579;-80
2021/07/07 01:25:45;;;;;;;;;3.75;2.25;;;;;;;;5018578;28;45428;-80
2021/07/07 01:28:10;;;;;;;;;3.00;2.75;;;;;;;;4995957;28;45582;-80
2021/07/07 01:30:35;;;;;;;;;4.00;3.00;;;;;;;;5024326;28;46091;-80
2021/07/07 01:33:00;;;;;;;;;2.50;2.25;;;;;;;;5014910;28;46279;-80
2021/07/07 01:35:26;;;;;;;;;5.00;2.00;;;;;;;;5022938;28;45520;-81
2021/07/07 01:37:52;;;;;;;;;4.00;3.25;;;;;;;;5000681;28;48358;-81
2021/07/07 01:40:19;;;;;;;;;8.75;3.00;;;;;;;;5017979;28;45634;-80
2021/07/07 01:42:44;;;;;;;;;5.00;3.50;;;;;;;;5020036;28;45627;-80
2021/07/07 01:45:11;;;;;;;;;3.00;3.00;;;;;;;;5025631;28;45619;-81
2021/07/07 01:47:37;;;;;;;;;4.00;3.00;;;;;;;;5016635;28;45648;-80
2021/07/07 01:50:02;;;;;;;;;6.75;2.00;;;;;;;;5014681;28;45626;-81
2021/07/07 01:52:28;;;;;;;;;5.00;4.00;;;;;;;;5020723;28;45554;-81
2021/07/07 01:54:53;;;;;;;;;3.00;1.75;;;;;;;;5022585;28;45572;-80
2021/07/07 01:57:18;;;;;;;;;3.00;3.00;;;;;;;;5013236;28;45371;-80
2021/07/07 01:59:44;;;;;;;;;4.67;3.00;;;;;;;;5025684;28;46067;-80
2021/07/07 02:02:09;;;;;;;;;2.75;2.75;;;;;;;;5004382;28;46070;-81
2021/07/07 02:04:35;;;;;;;;;4.75;2.75;;;;;;;;5013507;28;45932;-81
2021/07/07 02:07:00;;;;;;;;;4.50;3.75;;;;;;;;5023770;28;45376;-80
2021/07/07 02:09:26;;;;;;;;;4.25;3.00;;;;;;;;5007116;28;48518;-81
2021/07/07 02:11:51;;;;;;;;;2.00;2.00;;;;;;;;5023727;28;45525;-81
2021/07/07 02:14:16;;;;;;;;;3.75;3.00;;;;;;;;5010397;28;45497;-80
2021/07/07 02:16:42;;;;;;;;;5.25;4.00;;;;;;;;5010547;28;45558;-81
2021/07/07 02:19:07;;;;;;;;;6.00;3.00;;;;;;;;5015985;28;46588;-80
2021/07/07 02:21:33;;;;;;;;;3.50;2.50;;;;;;;;5016218;28;45381;-80
2021/07/07 02:23:58;;;;;;;;;3.75;3.25;;;;;;;;5024307;28;52295;-81
2021/07/07 02:26:23;;;;;;;;;3.00;1.00;;;;;;;;5012657;28;46074;-80
2021/07/07 02:28:48;;;;;;;;;4.25;2.50;;;;;;;;5008170;28;46078;-80
2021/07/07 02:31:14;;;;;;;;;4.00;3.00;;;;;;;;5009127;28;45698;-81
2021/07/07 02:33:39;;;;;;;;;2.00;2.00;;;;;;;;5011751;28;53715;-81
2021/07/07 02:36:04;;;;;;;;;4.50;3.00;;;;;;;;5015536;28;45532;-81
2021/07/07 02:38:30;;;;;;;;;4.50;3.00;;;;;;;;5002351;28;46682;-81
2021/07/07 02:40:55;;;;;;;;;4.00;3.00;;;;;;;;4995104;28;45566;-81
2021/07/07 02:43:21;;;;;;;;;2.75;2.25;;;;;;;;5027141;28;45467;-81
2021/07/07 02:45:46;;;;;;;;;4.00;2.00;;;;;;;;5005275;28;46957;-81
2021/07/07 02:48:13;;;;;;;;;3.50;2.25;;;;;;;;4997588;28;48790;-81
2021/07/07 02:50:38;;;;;;;;;5.00;3.00;;;;;;;;5016846;28;45742;-81
2021/07/07 02:53:05;;;;;;;;;3.25;3.00;;;;;;;;5010386;28;45433;-80
2021/07/07 02:55:30;;;;;;;;;3.00;2.00;;;;;;;;4999219;28;45656;-81
2021/07/07 02:57:56;;;;;;;;;5.00;3.50;;;;;;;;5007805;28;45610;-81
2021/07/07 03:00:22;;;;;;;;;5.00;4.00;;;;;;;;5014327;28;45649;-81
2021/07/07 03:02:48;;;;;;;;;4.50;3.00;;;;;;;;5026092;28;45630;-81
2021/07/07 03:05:13;;;;;;;;;3.00;3.00;;;;;;;;5004340;28;46041;-81
2021/07/07 03:07:39;;;;;;;;;1.00;1.00;;;;;;;;5015063;28;46469;-81
2021/07/07 03:10:10;;;;;;;;;3.50;3.00;;;;;;;;4999835;28;46583;-81
2021/07/07 03:12:36;;;;;;;;;5.75;4.00;;;;;;;;4995102;28;45795;-81
2021/07/07 03:15:01;;;;;;;;;3.75;3.25;;;;;;;;5022477;28;45547;-80
2021/07/07 03:17:27;;;;;;;;;4.00;2.00;;;;;;;;5020132;28;45610;-81
2021/07/07 03:19:52;;;;;;;;;5.00;4.00;;;;;;;;5000207;28;46105;-81
2021/07/07 03:22:18;;;;;;;;;5.00;3.00;;;;;;;;5015092;28;45520;-80
2021/07/07 03:24:44;;;;;;;;;4.50;3.25;;;;;;;;5014328;28;45672;-81
2021/07/07 03:27:09;;;;;;;;;5.25;3.00;;;;;;;;5023554;28;45886;-80
2021/07/07 03:29:34;;;;;;;;;4.00;3.00;;;;;;;;5021074;28;45522;-81
2021/07/07 03:31:59;;;;;;;;;5.33;3.67;;;;;;;;5012112;28;45498;-80
2021/07/07 03:34:25;;;;;;;;;6.75;3.75;;;;;;;;5020720;28;45430;-80
2021/07/07 03:36:50;;;;;;;;;4.00;2.00;;;;;;;;5009978;28;45346;-80
2021/07/07 03:39:15;;;;;;;;;5.00;4.00;;;;;;;;5014317;28;45499;-80
2021/07/07 03:41:40;;;;;;;;;3.00;3.00;;;;;;;;5014174;28;45715;-80
2021/07/07 03:44:06;;;;;;;;;4.00;4.00;;;;;;;;5020518;28;45589;-80
2021/07/07 03:46:31;;;;;;;;;3.75;2.75;;;;;;;;5023230;28;45596;-80
2021/07/07 03:48:56;;;;;;;;;6.25;3.00;;;;;;;;5008841;28;59509;-81
2021/07/07 03:51:21;;;;;;;;;4.33;3.00;;;;;;;;5009536;28;45582;-80
2021/07/07 03:53:47;;;;;;;;;6.00;3.33;;;;;;;;5025403;28;45567;-81
2021/07/07 03:56:12;;;;;;;;;6.50;3.50;;;;;;;;5001672;28;47240;-81
2021/07/07 03:58:37;;;;;;;;;5.00;4.67;;;;;;;;5033525;28;45529;-81
2021/07/07 04:01:02;;;;;;;;;5.67;3.00;;;;;;;;5014656;28;46405;-80
2021/07/07 04:03:28;;;;;;;;;4.67;2.00;;;;;;;;5015550;28;52404;-81
2021/07/07 04:05:53;;;;;;;;;4.50;3.00;;;;;;;;5022720;28;45478;-81
2021/07/07 04:08:18;;;;;;;;;4.75;3.00;;;;;;;;5015378;28;45601;-80
2021/07/07 04:10:44;;;;;;;;;3.25;2.75;;;;;;;;5003404;28;45710;-81
2021/07/07 04:13:09;;;;;;;;;3.50;2.50;;;;;;;;5006518;28;45664;-80
2021/07/07 04:15:35;;;;;;;;;3.75;3.75;;;;;;;;5014990;28;47736;-80
2021/07/07 04:18:00;;;;;;;;;4.00;2.50;;;;;;;;4997662;28;46267;-80
2021/07/07 04:20:25;;;;;;;;;5.00;3.50;;;;;;;;5018116;28;45567;-80
2021/07/07 04:22:51;;;;;;;;;6.00;3.00;;;;;;;;4992446;28;45645;-81
2021/07/07 04:25:16;;;;;;;;;4.00;4.00;;;;;;;;5012123;28;47878;-80
2021/07/07 04:27:43;;;;;;;;;3.25;3.00;;;;;;;;5005307;28;45688;-80
2021/07/07 04:30:09;;;;;;;;;4.00;3.00;;;;;;;;5020911;28;48245;-81
2021/07/07 04:32:34;;;;;;;;;5.00;4.00;;;;;;;;5001026;28;45569;-81
2021/07/07 04:35:00;;;;;;;;;4.75;4.00;;;;;;;;5002359;28;47282;-81
2021/07/07 04:37:25;;;;;;;;;4.33;4.00;;;;;;;;5007757;28;46200;-80
2021/07/07 04:39:54;;;;;;;;;5.00;4.00;;;;;;;;4991898;28;45632;-81
2021/07/07 04:42:19;;;;;;;;;4.00;4.00;;;;;;;;5009773;28;45720;-82
2021/07/07 04:44:45;;;;;;;;;5.00;3.75;;;;;;;;4998628;28;45701;-81
2021/07/07 04:47:10;;;;;;;;;3.00;3.00;;;;;;;;5020230;28;45498;-81
2021/07/07 04:49:35;;;;;;;;;3.67;3.67;;;;;;;;5023539;28;45809;-81
2021/07/07 04:52:01;;;;;;;;;6.25;3.00;;;;;;;;5016204;28;45546;-81
2021/07/07 04:54:26;;;;;;;;;4.50;3.00;;;;;;;;5019925;28;45621;-81
2021/07/07 04:56:51;;;;;;;;;4.50;3.00;;;;;;;;5002512;28;45980;-81
2021/07/07 04:59:17;;;;;;;;;7.75;4.00;;;;;;;;5008674;28;45528;-81
2021/07/07 05:01:42;;;;;;;;;5.67;3.00;;;;;;;;5005600;28;45929;-81
2021/07/07 05:04:08;;;;;;;;;5.00;3.00;;;;;;;;5022769;28;45529;-81
2021/07/07 05:06:33;;;;;;;;;4.25;4.00;;;;;;;;5005974;28;45546;-80
2021/07/07 05:08:58;;;;;;;;;5.50;5.00;;;;;;;;5021917;28;45475;-81
2021/07/07 05:11:24;;;;;;;;;5.25;3.00;;;;;;;;5019555;28;45564;-81
2021/07/07 05:13:49;;;;;;;;;2.50;2.50;;;;;;;;5013158;28;45898;-80
2021/07/07 05:16:14;;;;;;;;;7.33;3.00;;;;;;;;5015651;28;45512;-80
2021/07/07 05:18:39;;;;;;;;;4.50;4.00;;;;;;;;5009903;28;45379;-81
2021/07/07 05:21:05;;;;;;;;;5.00;3.00;;;;;;;;5026661;28;45526;-80
2021/07/07 05:23:33;;;;;;;;;4.00;4.00;;;;;;;;5021415;28;50423;-82
2021/07/07 05:25:58;;;;;;;;;4.50;3.00;;;;;;;;5015611;28;45774;-82
2021/07/07 05:28:24;;;;;;;;;6.25;4.00;;;;;;;;5015968;28;45474;-81
2021/07/07 05:30:49;;;;;;;;;4.75;4.50;;;;;;;;5023768;28;45561;-81
2021/07/07 05:35:42;;;;;;;;;5.00;3.00;;;;;;;;5029131;28;45456;-96
2021/07/07 05:40:44;;;;;;;;;5.25;4.00;;;;;;;;5043676;22;45697;-82
2021/07/07 05:43:09;;;;;;;;;3.00;3.00;;;;;;;;4991778;28;46779;-81
2021/07/07 05:45:34;;;;;;;;;3.75;3.75;;;;;;;;4997131;28;45341;-82
2021/07/07 05:48:00;;;;;;;;;5.00;2.75;;;;;;;;5000025;28;45537;-82
2021/07/07 05:50:25;;;;;;;;;8.00;4.00;;;;;;;;4990346;28;45569;-81
2021/07/07 05:52:51;;;;;;;;;5.50;4.50;;;;;;;;4987502;28;45367;-81
2021/07/07 05:55:17;;;;;;;;;4.75;3.00;;;;;;;;5002667;28;45669;-81
2021/07/07 05:57:42;;;;;;;;;4.00;4.00;;;;;;;;4996673;28;45515;-82
2021/07/07 06:00:09;;;;;;;;;5.50;4.00;;;;;;;;4996093;28;45533;-81
2021/07/07 06:02:34;;;;;;;;;4.50;4.50;;;;;;;;5109746;22;46315;-80
2021/07/07 06:05:00;;;;;;;;;6.50;3.25;;;;;;;;5008178;28;49515;-81
2021/07/07 06:07:25;;;;;;;;;5.00;4.00;;;;;;;;5027054;28;45450;-81
2021/07/07 06:09:50;;;;;;;;;7.75;4.00;;;;;;;;5022939;28;45312;-79
2021/07/07 06:12:16;;;;;;;;;5.00;4.00;;;;;;;;5005160;28;47871;-79
2021/07/07 06:14:41;;;;;;;;;3.25;3.25;;;;;;;;5014820;28;45527;-79
2021/07/07 06:17:06;;;;;;;;;6.00;4.50;;;;;;;;5002356;28;45473;-79
2021/07/07 06:19:32;;;;;;;;;7.00;4.00;;;;;;;;5020769;28;45895;-80
2021/07/07 06:22:00;;;;;;;;;6.00;5.50;;;;;;;;5004323;28;47549;-80
2021/07/07 06:24:25;;;;;;;;;4.25;3.50;;;;;;;;5010679;28;47340;-82
2021/07/07 06:26:51;;;;;;;;;6.50;3.50;;;;;;;;5018103;28;45715;-81
2021/07/07 06:29:17;;;;;;;;;4.67;3.67;;;;;;;;5020527;28;55954;-81
2021/07/07 06:31:43;;;;;;;;;4.50;3.75;;;;;;;;5016568;28;47322;-80
2021/07/07 06:34:12;;;;;;;;;5.75;4.00;;;;;;;;5006718;28;48776;-78
2021/07/07 06:36:37;;;;;;;;;4.00;4.00;;;;;;;;5022626;28;45486;-79
2021/07/07 06:39:03;;;;;;;;;5.00;4.00;;;;;;;;5032013;28;45493;-78
2021/07/07 06:41:28;;;;;;;;;6.25;5.00;;;;;;;;5001486;28;49045;-78
2021/07/07 06:43:53;;;;;;;;;5.00;4.00;;;;;;;;5010539;28;45633;-79
2021/07/07 06:46:19;;;;;;;;;6.00;4.00;;;;;;;;5018437;28;45683;-78
2021/07/07 06:48:44;;;;;;;;;6.00;4.25;;;;;;;;5023569;28;45478;-78
2021/07/07 06:51:09;;;;;;;;;8.33;4.67;;;;;;;;5027995;28;46001;-79
2021/07/07 06:53:34;;;;;;;;;4.33;3.00;;;;;;;;5015489;28;45751;-79
2021/07/07 06:55:59;;;;;;;;;5.67;5.00;;;;;;;;5016728;28;46543;-78
2021/07/07 06:58:25;;;;;;;;;4.00;4.00;;;;;;;;5017651;28;47319;-79
2021/07/07 07:00:50;;;;;;;;;5.50;4.00;;;;;;;;5017563;28;45641;-78
2021/07/07 07:03:15;;;;;;;;;7.00;6.00;;;;;;;;4986147;28;45826;-78
2021/07/07 07:05:41;;;;;;;;;4.00;4.00;;;;;;;;4998230;28;50341;-78
2021/07/07 07:08:06;;;;;;;;;6.50;4.75;;;;;;;;4996902;28;45901;-78
2021/07/07 07:10:31;;;;;;;;;5.00;5.00;;;;;;;;5009210;28;48317;-77
2021/07/07 07:12:56;;;;;;;;;4.75;4.00;;;;;;;;4992666;28;46057;-78
2021/07/07 07:15:22;;;;;;;;;6.00;4.50;;;;;;;;5001251;28;45753;-78
2021/07/07 07:17:47;;;;;;;;;6.75;4.50;;;;;;;;4995029;28;48145;-77
2021/07/07 07:20:14;;;;;;;;;9.00;6.25;;;;;;;;4977252;28;48529;-77
2021/07/07 07:22:40;;;;;;;;;5.00;5.00;;;;;;;;5007236;28;46165;-78
2021/07/07 07:25:06;;;;;;;;;4.75;4.75;;;;;;;;4990267;28;46816;-79
2021/07/07 07:27:32;;;;;;;;;6.00;4.75;;;;;;;;4994565;28;45593;-79
2021/07/07 07:29:57;;;;;;;;;9.50;5.00;;;;;;;;5010275;28;51783;-78
2021/07/07 07:32:22;;;;;;;;;8.00;6.00;;;;;;;;4992272;28;47322;-78
2021/07/07 07:34:48;;;;;;;;;5.50;5.50;;;;;;;;4989927;28;45626;-79
2021/07/07 07:37:20;;;;;;;;;4.75;4.75;;;;;;;;4999802;28;45673;-79
2021/07/07 07:39:47;;;;;;;;;4.00;4.00;;;;;;;;4991704;28;45513;-80
2021/07/07 07:42:14;;;;;;;;;6.50;5.00;;;;;;;;4984953;28;46211;-79
2021/07/07 07:44:39;;;;;;;;;5.50;5.50;;;;;;;;4968400;28;46859;-78
2021/07/07 07:47:05;;;;;;;;;4.25;4.25;;;;;;;;4982861;28;45884;-79
2021/07/07 07:49:30;;;;;;;;;4.50;3.75;;;;;;;;4997876;28;45565;-79
2021/07/07 07:51:56;;;;;;;;;8.00;4.75;;;;;;;;4989266;28;45592;-79
2021/07/07 07:54:21;;;;;;;;;6.00;4.50;;;;;;;;4999084;28;46038;-78
2021/07/07 07:56:46;;;;;;;;;5.50;5.50;;;;;;;;4991627;28;45570;-79
2021/07/07 07:59:11;;;;;;;;;7.00;5.50;;;;;;;;4988756;28;45523;-79
2021/07/07 08:01:37;;;;;;;;;5.50;5.50;;;;;;;;4988924;28;45493;-79
2021/07/07 08:04:02;;;;;;;;;8.00;5.75;;;;;;;;4997386;28;45779;-79
2021/07/07 08:06:28;;;;;;;;;7.00;4.00;;;;;;;;4997016;28;45521;-78
2021/07/07 08:08:57;;;;;;;;;5.75;5.00;;;;;;;;4992612;28;51578;-79
2021/07/07 08:11:22;;;;;;;;;5.00;4.50;;;;;;;;5005066;28;51260;-79
2021/07/07 08:13:47;;;;;;;;;4.50;4.50;;;;;;;;4995808;28;45514;-78
2021/07/07 08:16:12;;;;;;;;;6.67;4.00;;;;;;;;4990216;28;46117;-78
2021/07/07 08:18:38;;;;;;;;;6.50;5.00;;;;;;;;5004611;28;45920;-78
2021/07/07 08:21:03;;;;;;;;;3.00;3.00;;;;;;;;4998558;28;47426;-78
2021/07/07 08:23:28;;;;;;;;;6.25;5.00;;;;;;;;4993377;28;45576;-78
2021/07/07 08:25:54;;;;;;;;;4.75;4.75;;;;;;;;4984503;28;45382;-79
2021/07/07 08:28:19;;;;;;;;;6.33;4.67;;;;;;;;4998628;28;46369;-78
2021/07/07 08:30:44;;;;;;;;;8.00;6.00;;;;;;;;4998653;28;45569;-78
2021/07/07 08:33:10;;;;;;;;;7.50;4.50;;;;;;;;4996334;28;45696;-78
2021/07/07 08:35:37;;;;;;;;;4.50;4.00;;;;;;;;5002632;28;48614;-80
2021/07/07 08:38:03;;;;;;;;;10.25;6.00;;;;;;;;4997766;28;47131;-81
2021/07/07 08:40:29;;;;;;;;;6.75;4.75;;;;;;;;4999608;28;46007;-80
2021/07/07 08:42:55;;;;;;;;;6.25;4.50;;;;;;;;4995607;28;45880;-80
2021/07/07 08:45:21;;;;;;;;;7.75;4.75;;;;;;;;4994395;28;45731;-80
2021/07/07 08:47:46;;;;;;;;;8.75;5.50;;;;;;;;4996846;28;48607;-80
2021/07/07 08:50:14;;;;;;;;;8.50;5.75;;;;;;;;4995521;28;45819;-80
2021/07/07 08:52:40;;;;;;;;;6.50;5.75;;;;;;;;5011480;28;45492;-80
2021/07/07 08:55:06;;;;;;;;;9.00;5.00;;;;;;;;5002682;28;45592;-80
2021/07/07 08:57:41;;;;;;;;;4.75;2.75;;;;;;;;4987633;28;45641;-80
2021/07/07 09:00:07;;;;;;;;;2.00;1.75;;;;;;;;4999250;28;46413;-80
2021/07/07 09:02:44;;;;;;;;;5.25;5.00;;;;;;;;5005303;28;45487;-80
2021/07/07 09:05:10;;;;;;;;;4.75;4.00;;;;;;;;5012768;28;47469;-81
2021/07/07 09:07:38;;;;;;;;;7.50;5.75;;;;;;;;5009656;28;47626;-80
2021/07/07 09:10:03;;;;;;;;;4.75;4.75;;;;;;;;5011535;28;45682;-80
2021/07/07 09:12:29;;;;;;;;;6.50;5.25;;;;;;;;5010579;28;45940;-80
2021/07/07 09:15:07;;;;;;;;;5.50;5.50;;;;;;;;4998002;28;51235;-81
2021/07/07 09:17:42;;;;;;;;;6.25;5.75;;;;;;;;4990787;28;47934;-79
2021/07/07 09:20:18;;;;;;;;;2.75;1.75;;;;;;;;5008887;28;46049;-79
2021/07/07 09:22:44;;;;;;;;;7.50;5.50;;;;;;;;4996867;28;45624;-79
2021/07/07 09:25:09;;;;;;;;;4.75;4.00;;;;;;;;5014878;28;45784;-79
2021/07/07 09:27:36;;;;;;;;;4.00;4.00;;;;;;;;5016512;28;46125;-79
2021/07/07 09:30:07;;;;;;;;;6.25;6.00;;;;;;;;5015077;28;45432;-79
2021/07/07 09:32:40;;;;;;;;;9.25;6.25;;;;;;;;4992515;28;45941;-79
2021/07/07 09:35:05;;;;;;;;;5.50;5.50;;;;;;;;5010286;28;45536;-78
2021/07/07 09:37:37;;;;;;;;;6.00;5.75;;;;;;;;5020371;28;47148;-78
2021/07/07 09:40:03;;;;;;;;;7.75;5.00;;;;;;;;5006317;28;45674;-78
2021/07/07 09:42:29;;;;;;;;;5.75;4.75;;;;;;;;5018526;28;46384;-78
2021/07/07 09:44:57;;;;;;;;;8.75;5.25;;;;;;;;4996763;28;45519;-79
2021/07/07 09:47:22;;;;;;;;;4.00;4.00;;;;;;;;5010593;28;45506;-78
2021/07/07 09:49:48;;;;;;;;;6.00;5.75;;;;;;;;5020566;28;45513;-79
2021/07/07 09:52:17;;;;;;;;;6.25;5.75;;;;;;;;5012076;28;48218;-79
2021/07/07 09:54:42;;;;;;;;;6.00;5.50;;;;;;;;4988767;28;46207;-79
2021/07/07 09:57:09;;;;;;;;;7.75;4.75;;;;;;;;5018161;28;45578;-78
2021/07/07 09:59:36;;;;;;;;;6.00;5.00;;;;;;;;4999962;28;46248;-79
2021/07/07 10:02:01;;;;;;;;;5.75;5.75;;;;;;;;5017495;28;45498;-79
2021/07/07 10:04:32;;;;;;;;;8.25;6.25;;;;;;;;5000042;28;45677;-78
2021/07/07 10:06:58;;;;;;;;;7.50;6.25;;;;;;;;4995092;28;47739;-77
2021/07/07 10:09:23;;;;;;;;;6.50;6.00;;;;;;;;4997620;28;47934;-77
2021/07/07 10:11:49;;;;;;;;;5.00;5.00;;;;;;;;4984303;28;45402;-77
2021/07/07 10:14:14;;;;;;;;;5.50;5.50;;;;;;;;4992068;28;45897;-78
2021/07/07 10:16:40;;;;;;;;;7.00;5.75;;;;;;;;5023573;28;48124;-78
2021/07/07 10:19:05;;;;;;;;;8.50;6.25;;;;;;;;4990043;28;45552;-78
2021/07/07 10:21:31;;;;;;;;;8.00;5.00;;;;;;;;4996134;28;45497;-77
2021/07/07 10:23:56;;;;;;;;;7.25;6.25;;;;;;;;4997997;28;45443;-77
2021/07/07 10:26:23;;;;;;;;;6.75;6.00;;;;;;;;5000125;28;47191;-78
2021/07/07 10:28:49;;;;;;;;;6.50;5.75;;;;;;;;5001184;28;46105;-78
2021/07/07 10:31:14;;;;;;;;;7.75;6.50;;;;;;;;4996066;28;45619;-78
2021/07/07 10:33:40;;;;;;;;;7.50;4.75;;;;;;;;4995972;28;45626;-78
2021/07/07 10:36:17;;;;;;;;;7.75;6.00;;;;;;;;5000186;28;46368;-79
2021/07/07 10:38:53;;;;;;;;;7.50;5.00;;;;;;;;4994389;28;45643;-80
2021/07/07 10:41:37;;;;;;;;;4.75;4.75;;;;;;;;4993819;28;45657;-80
2021/07/07 10:44:02;;;;;;;;;6.25;5.00;;;;;;;;5012324;28;45754;-81
2021/07/07 10:46:46;;;;;;;;;9.50;8.00;;;;;;;;5001413;28;45575;-79
2021/07/07 10:49:18;;;;;;;;;6.25;5.25;;;;;;;;4987462;28;52528;-81
2021/07/07 10:51:47;;;;;;;;;6.00;5.50;;;;;;;;5002345;28;45543;-80
2021/07/07 10:54:23;;;;;;;;;6.25;5.25;;;;;;;;4994575;28;46609;-81
2021/07/07 10:56:48;;;;;;;;;8.00;6.00;;;;;;;;4991415;28;46331;-79
2021/07/07 10:59:44;;;;;;;;;6.50;4.00;;;;;;;;4991738;28;45398;-79
2021/07/07 11:02:16;;;;;;;;;6.50;5.50;;;;;;;;4991484;22;45276;-92
2021/07/07 11:04:41;;;;;;;;;6.25;5.25;;;;;;;;4971643;28;45528;-91
2021/07/07 11:22:00;;;;;;;;;6.00;4.00;;;;;;;;5107478;22;45640;-81
2021/07/07 11:24:25;;;;;;;;;4.00;4.00;;;;;;;;5002448;28;45562;-81
2021/07/07 11:26:54;;;;;;;;;4.75;4.00;;;;;;;;4994499;28;45596;-81
2021/07/07 11:29:20;;;;;;;;;5.50;4.00;;;;;;;;4999954;28;45648;-82
2021/07/07 11:31:46;;;;;;;;;6.50;5.75;;;;;;;;4989644;28;45682;-82
2021/07/07 11:34:11;;;;;;;;;6.00;3.50;;;;;;;;4994953;28;45427;-82
2021/07/07 11:36:54;;;;;;;;;4.75;4.75;;;;;;;;5016222;22;45655;-90
2021/07/07 11:39:24;;;;;;;;;8.25;5.00;;;;;;;;5005515;28;46723;-90
2021/07/07 11:42:03;;;;;;;;;5.00;5.00;;;;;;;;4990860;28;45429;-90
2021/07/07 11:44:40;;;;;;;;;9.00;5.00;;;;;;;;5033023;23;46525;-80
2021/07/07 11:47:05;;;;;;;;;5.75;3.25;;;;;;;;4975691;28;45478;-79
2021/07/07 11:49:31;;;;;;;;;3.50;3.50;;;;;;;;4969389;28;50063;-79
2021/07/07 11:52:05;;;;;;;;;3.50;3.25;;;;;;;;4961033;28;47055;-79
2021/07/07 11:54:47;;;;;;;;;5.75;4.00;;;;;;;;4975358;28;46334;-79
2021/07/07 11:57:12;;;;;;;;;5.00;4.00;;;;;;;;4975106;28;45627;-79
2021/07/07 11:59:38;;;;;;;;;4.50;3.00;;;;;;;;4978335;28;45486;-80
2021/07/07 12:02:03;;;;;;;;;6.00;4.00;;;;;;;;4973653;28;49447;-79
2021/07/07 12:04:28;;;;;;;;;4.00;4.00;;;;;;;;4971958;28;48187;-80
2021/07/07 12:06:56;;;;;;;;;4.00;4.00;;;;;;;;4984528;28;45630;-80
2021/07/07 12:09:22;;;;;;;;;5.25;5.25;;;;;;;;4978971;28;47015;-79
2021/07/07 12:11:51;;;;;;;;;5.50;4.00;;;;;;;;4981229;28;45500;-80
2021/07/07 12:14:17;;;;;;;;;5.25;4.00;;;;;;;;4963993;28;45623;-80
2021/07/07 12:16:45;;;;;;;;;4.50;4.50;;;;;;;;4971524;28;45630;-80
2021/07/07 12:19:12;;;;;;;;;5.25;4.75;;;;;;;;4967030;28;47172;-80
2021/07/07 12:21:44;;;;;;;;;7.25;3.00;;;;;;;;4978536;28;45804;-80
2021/07/07 12:24:14;;;;;;;;;5.75;5.75;;;;;;;;4980563;28;45790;-79
2021/07/07 12:26:41;;;;;;;;;5.50;4.50;;;;;;;;4975867;28;45700;-79
2021/07/07 12:29:09;;;;;;;;;2.50;2.50;;;;;;;;4979163;28;46075;-79
2021/07/07 12:31:38;;;;;;;;;8.50;5.00;;;;;;;;4971371;28;51658;-80
2021/07/07 12:34:06;;;;;;;;;5.75;5.00;;;;;;;;4968998;28;45759;-78
2021/07/07 12:36:32;;;;;;;;;6.25;5.75;;;;;;;;4970004;28;45639;-78
2021/07/07 12:38:58;;;;;;;;;6.25;5.00;;;;;;;;4975605;28;46218;-78
2021/07/07 12:41:30;;;;;;;;;4.25;4.25;;;;;;;;4979957;28;45722;-78
2021/07/07 12:43:58;;;;;;;;;6.00;6.00;;;;;;;;4975466;28;45578;-78
2021/07/07 12:46:23;;;;;;;;;6.75;6.00;;;;;;;;4986726;28;45751;-79
2021/07/07 12:48:49;;;;;;;;;6.75;6.00;;;;;;;;4972616;28;46082;-77
2021/07/07 12:51:25;;;;;;;;;6.75;6.75;;;;;;;;4974568;28;51014;-78
2021/07/07 12:53:51;;;;;;;;;6.75;6.25;;;;;;;;4984303;28;45496;-78
2021/07/07 12:56:16;;;;;;;;;9.25;6.25;;;;;;;;4967820;28;45518;-78
2021/07/07 12:58:41;;;;;;;;;8.25;6.25;;;;;;;;4968733;28;46808;-78
2021/07/07 13:01:19;;;;;;;;;8.00;5.75;;;;;;;;4974554;28;45520;-77
2021/07/07 13:03:45;;;;;;;;;6.25;6.25;;;;;;;;4970755;28;46360;-77
2021/07/07 13:06:24;;;;;;;;;5.75;4.50;;;;;;;;4962201;28;45703;-77
2021/07/07 13:08:59;;;;;;;;;6.50;5.25;;;;;;;;4984407;28;45696;-78
2021/07/07 13:11:25;;;;;;;;;4.75;4.00;;;;;;;;4952858;28;45777;-78
2021/07/07 13:13:54;;;;;;;;;5.25;5.25;;;;;;;;4974802;28;51455;-77
2021/07/07 13:16:19;;;;;;;;;3.75;3.75;;;;;;;;4958015;28;45448;-78
2021/07/07 13:18:51;;;;;;;;;8.00;5.25;;;;;;;;4968963;28;45811;-78
2021/07/07 13:21:27;;;;;;;;;10.00;5.50;;;;;;;;4974870;28;45747;-78
2021/07/07 13:23:53;;;;;;;;;5.25;3.50;;;;;;;;4972791;28;45412;-79
2021/07/07 13:26:21;;;;;;;;;5.50;4.50;;;;;;;;4968763;28;45626;-77
2021/07/07 13:28:50;;;;;;;;;5.75;4.00;;;;;;;;4978527;28;47316;-78
2021/07/07 13:31:18;;;;;;;;;7.75;4.75;;;;;;;;4977304;28;45535;-78
2021/07/07 13:33:43;;;;;;;;;5.00;4.00;;;;;;;;4957180;28;45613;-78
2021/07/07 13:36:08;;;;;;;;;4.50;4.00;;;;;;;;4977189;28;45519;-78
2021/07/07 13:38:33;;;;;;;;;6.00;4.00;;;;;;;;4976086;28;46459;-78
2021/07/07 13:41:00;;;;;;;;;7.75;6.00;;;;;;;;4949653;28;46179;-77
2021/07/07 13:43:25;;;;;;;;;6.67;5.33;;;;;;;;4983140;28;45507;-77
2021/07/07 13:45:50;;;;;;;;;5.50;4.50;;;;;;;;4972609;28;45730;-78
2021/07/07 13:48:15;;;;;;;;;5.75;5.00;;;;;;;;4967969;28;46871;-79
2021/07/07 13:50:41;;;;;;;;;7.67;5.00;;;;;;;;4972527;28;45639;-78
2021/07/07 13:53:06;;;;;;;;;5.00;4.00;;;;;;;;4954155;28;47809;-78
2021/07/07 13:55:33;;;;;;;;;4.00;4.00;;;;;;;;4976903;28;45943;-77
2021/07/07 13:57:59;;;;;;;;;5.25;4.00;;;;;;;;4947300;28;47391;-78
2021/07/07 14:00:24;;;;;;;;;5.75;4.25;;;;;;;;4959202;28;47163;-78
2021/07/07 14:02:49;;;;;;;;;5.00;4.25;;;;;;;;4982048;28;45838;-79
2021/07/07 14:05:15;;;;;;;;;5.75;5.50;;;;;;;;4972684;28;45605;-79
2021/07/07 14:07:40;;;;;;;;;7.25;4.50;;;;;;;;4976041;28;55604;-79
2021/07/07 14:10:05;;;;;;;;;6.75;3.25;;;;;;;;4971315;28;45571;-78
2021/07/07 14:12:30;;;;;;;;;4.75;4.75;;;;;;;;4951544;28;46299;-79
2021/07/07 14:14:56;;;;;;;;;5.00;4.00;;;;;;;;4979199;28;45564;-79
2021/07/07 14:17:21;;;;;;;;;5.67;5.00;;;;;;;;4959003;28;48094;-80
2021/07/07 14:19:46;;;;;;;;;3.25;3.25;;;;;;;;4968359;28;45530;-80
2021/07/07 14:22:11;;;;;;;;;4.00;4.00;;;;;;;;4953616;28;46033;-79
2021/07/07 14:24:37;;;;;;;;;4.25;4.25;;;;;;;;4990043;28;45691;-82
2021/07/07 14:27:02;;;;;;;;;6.50;4.00;;;;;;;;4978451;28;47497;-79
2021/07/07 14:29:28;;;;;;;;;4.00;3.75;;;;;;;;4978590;28;45467;-78
2021/07/07 14:31:53;;;;;;;;;4.50;4.00;;;;;;;;4971272;28;45683;-79
2021/07/07 14:34:18;;;;;;;;;2.00;2.00;;;;;;;;4986292;28;45720;-79
2021/07/07 14:36:44;;;;;;;;;6.50;4.50;;;;;;;;4974538;28;48578;-79
2021/07/07 14:39:10;;;;;;;;;3.50;2.00;;;;;;;;4978591;28;46008;-79
2021/07/07 14:41:35;;;;;;;;;4.25;4.00;;;;;;;;4973784;28;45601;-80
2021/07/07 14:44:01;;;;;;;;;4.50;2.50;;;;;;;;4957567;28;45636;-80
2021/07/07 14:46:27;;;;;;;;;2.00;2.00;;;;;;;;4963006;28;45570;-80
2021/07/07 14:48:53;;;;;;;;;3.00;2.50;;;;;;;;4972683;28;45838;-81
2021/07/07 14:51:18;;;;;;;;;2.00;2.00;;;;;;;;4977115;28;45530;-81
2021/07/07 14:53:43;;;;;;;;;3.00;3.00;;;;;;;;4977460;28;46349;-81
2021/07/07 14:56:08;;;;;;;;;4.50;3.00;;;;;;;;4971005;28;46245;-82
2021/07/07 14:58:34;;;;;;;;;2.25;2.25;;;;;;;;4958100;28;45658;-82